createdAt,value
2023-03-02T00:01:48.285Z,1.90
2023-03-02T00:04:25.707Z,1.60
2023-03-02T00:06:58.022Z,1.50
2023-03-02T00:09:25.265Z,2.50
2023-03-02T00:11:52.440Z,1.80
2023-03-02T00:14:19.579Z,2.25
2023-03-02T00:16:46.910Z,1.85
2023-03-02T00:19:14.010Z,1.63
2023-03-02T00:21:41.426Z,1.80
2023-03-02T00:24:08.590Z,4.00
2023-03-02T00:26:36.742Z,2.72
2023-03-02T00:29:04.293Z,2.50
2023-03-02T00:31:31.558Z,2.42
2023-03-02T00:33:58.768Z,4.55
2023-03-02T00:36:26.140Z,4.10
2023-03-02T00:38:53.467Z,3.15
2023-03-02T00:41:21.547Z,3.50
2023-03-02T00:43:49.777Z,3.55
2023-03-02T00:46:19.946Z,2.97
2023-03-02T00:48:46.994Z,3.05
2023-03-02T00:51:14.374Z,2.60
2023-03-02T00:53:41.640Z,2.85
2023-03-02T00:56:10.199Z,2.42
2023-03-02T00:58:38.050Z,2.40
2023-03-02T01:01:08.059Z,2.35
2023-03-02T01:03:35.826Z,2.15
2023-03-02T01:06:03.522Z,2.72
2023-03-02T01:08:30.958Z,2.50
2023-03-02T01:11:01.131Z,2.00
2023-03-02T01:13:28.598Z,2.10
2023-03-02T01:16:03.209Z,2.05
2023-03-02T01:18:30.338Z,2.30
2023-03-02T01:21:05.650Z,2.00
2023-03-02T01:23:32.816Z,1.70
2023-03-02T01:25:59.940Z,2.17
2023-03-02T01:28:27.198Z,1.70
2023-03-02T01:30:54.416Z,1.75
2023-03-02T01:33:21.820Z,1.90
2023-03-02T01:35:49.301Z,1.65
2023-03-02T01:38:16.512Z,1.67
2023-03-02T01:40:43.729Z,1.58
2023-03-02T01:43:13.813Z,1.70
2023-03-02T01:45:55.588Z,1.55
2023-03-02T01:48:47.064Z,1.35
2023-03-02T01:51:21.011Z,1.67
2023-03-02T01:53:54.638Z,2.10
2023-03-02T01:56:41.151Z,2.80
2023-03-02T01:59:11.966Z,1.90
2023-03-02T02:01:42.468Z,1.85
2023-03-02T02:04:10.193Z,1.70
2023-03-02T02:06:40.532Z,1.67
2023-03-02T02:09:12.980Z,1.77
2023-03-02T02:11:40.308Z,1.40
2023-03-02T02:14:07.517Z,1.48
2023-03-02T02:16:36.094Z,1.48
2023-03-02T02:19:08.320Z,1.40
2023-03-02T02:21:36.082Z,1.25
2023-03-02T02:24:11.696Z,1.50
2023-03-02T02:26:44.659Z,1.02
2023-03-02T02:29:15.775Z,1.20
2023-03-02T02:31:51.383Z,1.40
2023-03-02T02:34:31.116Z,1.13
2023-03-02T02:37:09.154Z,1.00
2023-03-02T02:39:39.159Z,1.50
2023-03-02T02:42:11.553Z,1.42
2023-03-02T02:44:39.187Z,1.42
2023-03-02T02:47:23.334Z,1.10
2023-03-02T02:49:53.397Z,1.42
2023-03-02T02:52:23.150Z,2.00
2023-03-02T02:54:53.718Z,1.33
2023-03-02T02:57:24.312Z,1.65
2023-03-02T02:59:54.970Z,1.27
2023-03-02T03:02:24.907Z,1.60
2023-03-02T03:04:52.391Z,1.50
2023-03-02T03:07:24.937Z,1.48
2023-03-02T03:10:12.416Z,1.75
2023-03-02T03:12:40.312Z,1.60
2023-03-02T03:15:08.442Z,1.40
2023-03-02T03:17:35.801Z,1.20
2023-03-02T03:20:08.934Z,1.42
2023-03-02T03:22:37.827Z,1.33
2023-03-02T03:25:05.553Z,1.02
2023-03-02T03:27:32.928Z,2.28
2023-03-02T03:30:01.819Z,1.30
2023-03-02T03:32:29.389Z,1.30
2023-03-02T03:34:56.482Z,1.50
2023-03-02T03:37:23.978Z,1.40
2023-03-02T03:39:51.224Z,1.40
2023-03-02T03:42:18.409Z,1.50
2023-03-02T03:44:45.713Z,1.30
2023-03-02T03:47:12.856Z,1.25
2023-03-02T03:49:39.911Z,1.48
2023-03-02T03:52:06.982Z,1.70
2023-03-02T03:54:34.127Z,1.50
2023-03-02T03:57:01.253Z,1.40
2023-03-02T03:59:28.826Z,1.80
2023-03-02T04:02:00.867Z,1.30
2023-03-02T04:04:31.021Z,1.20
2023-03-02T04:06:58.536Z,1.00
2023-03-02T04:09:26.433Z,0.90
2023-03-02T04:11:55.661Z,0.93
2023-03-02T04:14:23.743Z,1.00
2023-03-02T04:16:51.810Z,1.00
2023-03-02T04:19:19.016Z,0.80
2023-03-02T04:21:50.103Z,0.90
2023-03-02T04:24:19.032Z,0.95
2023-03-02T04:26:48.958Z,1.00
2023-03-02T04:29:16.944Z,1.00
2023-03-02T04:31:44.269Z,1.85
2023-03-02T04:34:11.325Z,1.40
2023-03-02T04:36:40.352Z,1.02
2023-03-02T04:39:08.510Z,1.02
2023-03-02T04:41:36.293Z,0.80
2023-03-02T04:44:03.528Z,1.00
2023-03-02T04:46:31.122Z,0.85
2023-03-02T04:48:58.333Z,1.00
2023-03-02T04:51:31.754Z,1.05
2023-03-02T04:54:01.557Z,0.90
2023-03-02T04:56:28.842Z,0.80
2023-03-02T04:58:56.331Z,0.88
2023-03-02T05:01:24.206Z,0.80
2023-03-02T05:03:51.591Z,0.90
2023-03-02T05:06:19.092Z,0.82
2023-03-02T05:08:46.139Z,1.60
2023-03-02T05:11:25.772Z,1.30
2023-03-02T05:13:56.260Z,1.38
2023-03-02T05:16:24.825Z,0.93
2023-03-02T05:18:52.167Z,1.25
2023-03-02T05:21:19.621Z,1.20
2023-03-02T05:23:46.879Z,1.40
2023-03-02T05:26:14.469Z,1.10
2023-03-02T05:28:42.336Z,1.00
2023-03-02T05:31:10.455Z,0.90
2023-03-02T05:33:37.559Z,0.90
2023-03-02T05:36:04.782Z,1.00
2023-03-02T05:38:31.855Z,0.90
2023-03-02T05:40:58.929Z,0.95
2023-03-02T05:43:26.172Z,1.30
2023-03-02T05:45:53.336Z,1.40
2023-03-02T05:48:20.410Z,1.20
2023-03-02T05:50:47.484Z,0.90
2023-03-02T05:53:14.571Z,1.00
2023-03-02T05:55:41.620Z,0.90
2023-03-02T05:58:14.338Z,0.90
2023-03-02T06:00:42.185Z,1.20
2023-03-02T06:03:09.668Z,1.25
2023-03-02T06:05:36.793Z,1.17
2023-03-02T06:08:04.433Z,1.30
2023-03-02T06:10:31.924Z,1.20
2023-03-02T06:12:59.090Z,1.20
2023-03-02T06:15:29.533Z,1.10
2023-03-02T06:17:57.664Z,0.90
2023-03-02T06:20:24.868Z,1.20
2023-03-02T06:22:52.150Z,1.27
2023-03-02T06:25:21.935Z,1.35
2023-03-02T06:27:51.598Z,1.40
2023-03-02T06:30:21.739Z,1.33
2023-03-02T06:32:48.841Z,1.20
2023-03-02T06:35:16.351Z,1.20
2023-03-02T06:37:44.407Z,1.40
2023-03-02T06:40:13.596Z,1.20
2023-03-02T06:42:42.047Z,1.20
2023-03-02T06:45:09.825Z,1.10
2023-03-02T06:47:37.087Z,1.13
2023-03-02T06:50:05.372Z,1.00
2023-03-02T06:52:32.546Z,1.20
2023-03-02T06:54:59.592Z,4.00
2023-03-02T06:57:33.514Z,2.30
2023-03-02T07:00:15.607Z,2.10
2023-03-02T07:02:44.276Z,4.32
2023-03-02T07:05:12.362Z,3.40
2023-03-02T07:07:39.952Z,3.13
2023-03-02T07:10:08.250Z,2.80
2023-03-02T07:12:35.391Z,2.50
2023-03-02T07:15:02.523Z,2.20
2023-03-02T07:17:29.698Z,2.05
2023-03-02T07:19:56.745Z,2.15
2023-03-02T07:22:23.864Z,2.08
2023-03-02T07:24:50.920Z,1.50
2023-03-02T07:27:18.128Z,1.65
2023-03-02T07:29:45.235Z,2.00
2023-03-02T07:32:12.829Z,1.77
2023-03-02T07:34:40.146Z,1.60
2023-03-02T07:37:07.304Z,1.70
2023-03-02T07:39:34.383Z,1.50
2023-03-02T07:42:02.882Z,1.92
2023-03-02T07:44:30.873Z,1.70
2023-03-02T07:46:58.619Z,1.73
2023-03-02T07:49:25.857Z,1.55
2023-03-02T07:51:52.907Z,1.25
2023-03-02T07:54:20.257Z,1.30
2023-03-02T07:56:47.594Z,1.30
2023-03-02T07:59:14.666Z,1.30
2023-03-02T08:01:41.835Z,1.20
2023-03-02T08:04:08.982Z,1.27
2023-03-02T08:06:36.106Z,1.20
2023-03-02T08:09:04.118Z,1.30
2023-03-02T08:11:31.507Z,1.20
2023-03-02T08:14:02.588Z,1.20
2023-03-02T08:16:30.451Z,1.10
2023-03-02T08:18:59.750Z,1.20
2023-03-02T08:21:28.577Z,1.00
2023-03-02T08:23:55.743Z,1.07
2023-03-02T08:26:22.933Z,1.00
2023-03-02T08:28:49.988Z,1.33
2023-03-02T08:31:17.282Z,1.20
2023-03-02T08:33:45.844Z,1.40
2023-03-02T08:36:15.875Z,1.40
2023-03-02T08:38:43.306Z,1.40
2023-03-02T08:41:16.989Z,1.10
2023-03-02T08:43:44.257Z,1.30
2023-03-02T08:46:13.825Z,1.83
2023-03-02T08:48:41.184Z,1.20
2023-03-02T08:51:13.775Z,1.10
2023-03-02T08:53:46.565Z,1.23
2023-03-02T08:56:28.437Z,1.00
2023-03-02T08:58:58.720Z,1.02
2023-03-02T09:01:29.713Z,1.20
2023-03-02T09:03:59.276Z,1.10
2023-03-02T09:06:28.539Z,1.60
2023-03-02T09:08:56.246Z,1.20
2023-03-02T09:11:23.682Z,1.00
2023-03-02T09:13:51.126Z,1.40
2023-03-02T09:16:20.235Z,1.20
2023-03-02T09:18:47.810Z,1.20
2023-03-02T09:21:15.197Z,1.00
2023-03-02T09:23:42.538Z,2.10
2023-03-02T09:26:10.144Z,2.70
2023-03-02T09:28:38.248Z,2.33
2023-03-02T09:31:07.301Z,2.17
2023-03-02T09:33:34.712Z,1.70
2023-03-02T09:36:06.646Z,1.92
2023-03-02T09:38:33.803Z,1.50
2023-03-02T09:41:19.365Z,1.48
2023-03-02T09:44:25.964Z,1.20
2023-03-02T09:47:19.807Z,1.20
2023-03-02T09:50:14.065Z,1.30
2023-03-02T09:52:52.561Z,1.20
2023-03-02T09:55:27.257Z,2.80
2023-03-02T09:57:55.872Z,3.15
2023-03-02T10:00:36.374Z,2.38
2023-03-02T10:03:16.696Z,2.33
2023-03-02T10:05:49.935Z,1.93
2023-03-02T10:08:33.543Z,1.83
2023-03-02T10:11:26.619Z,1.90
2023-03-02T10:14:19.549Z,2.00
2023-03-02T10:17:16.046Z,1.80
2023-03-02T10:19:56.630Z,1.77
2023-03-02T10:22:38.174Z,1.70
2023-03-02T10:25:08.093Z,1.67
2023-03-02T10:27:39.431Z,1.33
2023-03-02T10:30:25.480Z,1.30
2023-03-02T10:32:55.040Z,1.33
2023-03-02T10:35:24.668Z,1.40
2023-03-02T10:37:59.341Z,1.23
2023-03-02T10:40:41.136Z,1.20
2023-03-02T10:43:25.103Z,1.40
2023-03-02T10:46:10.118Z,1.33
2023-03-02T10:48:56.219Z,1.05
2023-03-02T10:51:31.612Z,1.20
2023-03-02T10:54:13.768Z,1.30
2023-03-02T10:56:50.211Z,1.40
2023-03-02T10:59:26.852Z,5.40
2023-03-02T11:02:02.842Z,3.47
2023-03-02T11:04:30.975Z,4.18
2023-03-02T11:07:08.771Z,3.80
2023-03-02T11:09:35.850Z,3.45
2023-03-02T11:12:02.986Z,2.90
2023-03-02T11:14:30.164Z,2.83
2023-03-02T11:16:59.031Z,3.30
2023-03-02T11:19:35.041Z,2.70
2023-03-02T11:22:26.424Z,2.50
2023-03-02T11:24:57.939Z,2.58
2023-03-02T11:27:30.690Z,3.05
2023-03-02T11:29:59.520Z,2.30
2023-03-02T11:32:32.195Z,2.75
2023-03-02T11:35:38.337Z,2.43
2023-03-02T11:38:27.441Z,2.20
2023-03-02T11:41:04.309Z,2.30
2023-03-02T11:43:31.591Z,2.23
2023-03-02T11:46:06.638Z,1.90
2023-03-02T11:48:43.864Z,1.80
2023-03-02T11:51:17.095Z,1.48
2023-03-02T11:54:00.665Z,1.60
2023-03-02T11:56:31.572Z,1.42
2023-03-02T11:59:07.732Z,1.60
2023-03-02T12:01:37.866Z,1.83
2023-03-02T12:04:27.591Z,1.50
2023-03-02T12:06:54.914Z,1.47
2023-03-02T12:09:30.810Z,1.50
2023-03-02T12:12:12.140Z,1.37
2023-03-02T12:14:40.928Z,1.25
2023-03-02T12:17:25.681Z,1.40
2023-03-02T12:20:26.813Z,1.70
2023-03-02T12:22:54.621Z,2.00
2023-03-02T12:25:21.647Z,2.08
2023-03-02T12:27:51.530Z,2.00
2023-03-02T12:30:23.542Z,2.38
2023-03-02T12:33:19.918Z,2.17
2023-03-02T12:35:50.040Z,2.20
2023-03-02T12:38:30.918Z,2.33
2023-03-02T12:41:21.071Z,2.17
2023-03-02T12:44:15.027Z,1.90
2023-03-02T12:46:46.298Z,1.90
2023-03-02T12:49:17.146Z,2.50
2023-03-02T12:51:52.042Z,1.97
2023-03-02T12:54:22.432Z,2.07
2023-03-02T12:56:49.983Z,2.17
2023-03-02T12:59:27.591Z,2.20
2023-03-02T13:02:05.031Z,2.17
2023-03-02T13:04:32.330Z,1.83
2023-03-02T13:06:59.527Z,1.75
2023-03-02T13:09:26.756Z,1.60
2023-03-02T13:11:55.042Z,1.50
2023-03-02T13:14:26.396Z,1.35
2023-03-02T13:17:04.549Z,1.30
2023-03-02T13:19:32.906Z,1.50
2023-03-02T13:22:00.314Z,1.30
2023-03-02T13:24:58.945Z,1.38
2023-03-02T13:27:26.502Z,1.40
2023-03-02T13:29:57.482Z,1.30
2023-03-02T13:32:36.291Z,1.58
2023-03-02T13:35:04.710Z,1.70
2023-03-02T13:37:34.494Z,1.58
2023-03-02T13:40:04.760Z,1.92
2023-03-02T13:42:39.255Z,1.80
2023-03-02T13:45:21.675Z,1.90
2023-03-02T13:47:49.129Z,1.55
2023-03-02T13:50:31.543Z,1.70
2023-03-02T13:53:02.371Z,1.80
2023-03-02T13:55:29.902Z,1.75
2023-03-02T13:57:57.720Z,1.80
2023-03-02T14:00:35.787Z,1.90
2023-03-02T14:03:03.008Z,1.65
2023-03-02T14:05:33.377Z,1.73
2023-03-02T14:08:01.520Z,1.30
2023-03-02T14:10:29.429Z,1.42
2023-03-02T14:13:10.133Z,1.52
2023-03-02T14:15:41.210Z,1.70
2023-03-02T14:18:28.026Z,1.58
2023-03-02T14:20:56.316Z,1.88
2023-03-02T14:23:25.337Z,1.60
2023-03-02T14:25:53.958Z,1.90
2023-03-02T14:28:32.807Z,1.97
2023-03-02T14:30:59.987Z,1.80
2023-03-02T14:33:27.319Z,1.70
2023-03-02T14:35:56.716Z,1.75
2023-03-02T14:38:26.322Z,1.88
2023-03-02T14:40:53.955Z,1.80
2023-03-02T14:43:23.268Z,1.90
2023-03-02T14:45:51.908Z,1.80
2023-03-02T14:48:19.084Z,1.40
2023-03-02T14:50:48.592Z,1.33
2023-03-02T14:53:25.904Z,1.80
2023-03-02T14:55:53.098Z,1.80
2023-03-02T14:58:32.409Z,2.13
2023-03-02T15:01:00.305Z,2.58
2023-03-02T15:03:27.786Z,2.90
2023-03-02T15:06:01.220Z,4.47
2023-03-02T15:08:30.011Z,3.78
2023-03-02T15:10:57.070Z,4.07
2023-03-02T15:13:24.166Z,4.18
2023-03-02T15:15:52.637Z,4.18
2023-03-02T15:18:20.051Z,3.95
2023-03-02T15:20:47.191Z,3.38
2023-03-02T15:23:14.309Z,3.65
2023-03-02T15:25:42.862Z,3.30
2023-03-02T15:28:10.142Z,4.55
2023-03-02T15:30:37.202Z,5.68
2023-03-02T15:33:04.391Z,4.13
2023-03-02T15:35:31.541Z,4.88
2023-03-02T15:38:02.367Z,3.57
2023-03-02T15:40:29.423Z,3.47
2023-03-02T15:42:56.547Z,8.25
2023-03-02T15:45:23.648Z,4.33
2023-03-02T15:47:50.710Z,3.40
2023-03-02T15:50:17.991Z,2.43
2023-03-02T15:52:45.058Z,2.25
2023-03-02T15:55:15.285Z,1.92
2023-03-02T15:57:42.449Z,1.10
2023-03-02T16:00:11.528Z,0.80
2023-03-02T16:02:39.069Z,0.85
2023-03-02T16:05:06.605Z,1.13
2023-03-02T16:07:34.338Z,1.50
2023-03-02T16:10:01.387Z,1.30
2023-03-02T16:12:28.453Z,1.75
2023-03-02T16:14:55.485Z,1.10
2023-03-02T16:17:23.034Z,1.05
2023-03-02T16:19:50.079Z,0.80
2023-03-02T16:22:17.152Z,0.90
2023-03-02T16:24:44.265Z,1.20
2023-03-02T16:27:11.333Z,0.93
2023-03-02T16:29:38.383Z,0.95
2023-03-02T16:32:06.412Z,1.33
2023-03-02T16:34:33.531Z,1.30
2023-03-02T16:37:00.685Z,0.90
2023-03-02T16:39:27.963Z,0.80
2023-03-02T16:41:55.223Z,1.38
2023-03-02T16:44:22.913Z,1.52
2023-03-02T16:46:50.053Z,1.10
2023-03-02T16:49:17.474Z,0.90
2023-03-02T16:51:44.621Z,1.52
2023-03-02T16:54:15.220Z,1.30
2023-03-02T16:56:45.110Z,1.25
2023-03-02T16:59:12.383Z,1.30
2023-03-02T17:01:39.708Z,1.08
2023-03-02T17:04:06.917Z,0.93
2023-03-02T17:06:34.148Z,1.00
2023-03-02T17:09:01.268Z,1.00
2023-03-02T17:11:28.435Z,0.90
2023-03-02T17:13:55.670Z,0.80
2023-03-02T17:16:23.098Z,0.85
2023-03-02T17:18:50.141Z,2.20
2023-03-02T17:21:17.330Z,0.93
2023-03-02T17:23:47.773Z,1.27
2023-03-02T17:26:16.196Z,4.45
2023-03-02T17:28:43.282Z,5.05
2023-03-02T17:31:10.920Z,3.28
2023-03-02T17:33:38.709Z,4.00
2023-03-02T17:36:07.379Z,4.45
2023-03-02T17:38:34.540Z,3.25
2023-03-02T17:41:05.983Z,3.22
2023-03-02T17:43:35.364Z,2.70
2023-03-02T17:46:11.704Z,2.88
2023-03-02T17:48:39.065Z,2.20
2023-03-02T17:51:06.221Z,2.20
2023-03-02T17:53:33.748Z,1.88
2023-03-02T17:56:00.864Z,2.10
2023-03-02T17:58:35.965Z,2.00
2023-03-02T18:01:10.055Z,1.88
2023-03-02T18:03:37.645Z,2.00
2023-03-02T18:06:05.612Z,1.90
2023-03-02T18:08:36.835Z,1.70
2023-03-02T18:11:06.933Z,1.75
2023-03-02T18:13:34.108Z,1.50
2023-03-02T18:16:01.253Z,1.77
2023-03-02T18:18:28.327Z,1.70
2023-03-02T18:20:55.524Z,2.00
2023-03-02T18:23:22.666Z,1.90
2023-03-02T18:25:49.780Z,2.00
2023-03-02T18:28:16.887Z,2.10
2023-03-02T18:30:43.951Z,1.80
2023-03-02T18:33:11.231Z,1.70
2023-03-02T18:35:40.862Z,1.70
2023-03-02T18:38:10.108Z,1.77
2023-03-02T18:40:37.544Z,1.60
2023-03-02T18:43:04.598Z,1.58
2023-03-02T18:45:32.486Z,1.50
2023-03-02T18:48:00.513Z,1.20
2023-03-02T18:50:28.413Z,1.38
2023-03-02T18:52:55.459Z,1.70
2023-03-02T18:55:24.757Z,1.20
2023-03-02T18:57:53.854Z,1.20
2023-03-02T19:00:27.726Z,1.40
2023-03-02T19:02:56.295Z,1.40
2023-03-02T19:05:25.048Z,1.35
2023-03-02T19:07:52.638Z,1.20
2023-03-02T19:10:21.495Z,1.40
2023-03-02T19:12:48.887Z,1.50
2023-03-02T19:15:16.467Z,1.50
2023-03-02T19:17:43.929Z,1.40
2023-03-02T19:20:15.947Z,1.10
2023-03-02T19:22:43.044Z,1.20
2023-03-02T19:25:11.025Z,1.30
2023-03-02T19:27:38.176Z,1.25
2023-03-02T19:30:06.902Z,1.10
2023-03-02T19:32:34.109Z,1.20
2023-03-02T19:35:04.485Z,1.10
2023-03-02T19:37:31.578Z,1.10
2023-03-02T19:39:58.640Z,1.63
2023-03-02T19:42:25.763Z,1.27
2023-03-02T19:44:52.835Z,1.30
2023-03-02T19:47:19.892Z,1.63
2023-03-02T19:49:46.958Z,1.60
2023-03-02T19:52:14.010Z,1.52
2023-03-02T19:54:43.421Z,1.30
2023-03-02T19:57:10.553Z,1.80
2023-03-02T19:59:39.634Z,1.60
2023-03-02T20:02:06.819Z,1.47
2023-03-02T20:04:33.862Z,1.50
2023-03-02T20:07:01.429Z,1.35
2023-03-02T20:09:28.522Z,2.00
2023-03-02T20:11:55.594Z,2.00
2023-03-02T20:14:33.545Z,1.25
2023-03-02T20:17:02.317Z,1.10
2023-03-02T20:19:29.419Z,1.35
2023-03-02T20:21:56.567Z,1.40
2023-03-02T20:24:23.640Z,1.30
2023-03-02T20:26:50.740Z,1.98
2023-03-02T20:29:18.121Z,1.40
2023-03-02T20:31:45.313Z,1.42
2023-03-02T20:34:15.896Z,1.30
2023-03-02T20:36:43.247Z,1.40
2023-03-02T20:39:15.819Z,1.30
2023-03-02T20:41:43.521Z,1.10
2023-03-02T20:44:13.437Z,1.30
2023-03-02T20:46:49.484Z,1.10
2023-03-02T20:49:16.646Z,1.30
2023-03-02T20:51:49.173Z,1.40
2023-03-02T20:54:17.145Z,1.20
2023-03-02T20:56:44.518Z,1.23
2023-03-02T20:59:14.070Z,1.30
2023-03-02T21:01:41.725Z,1.20
2023-03-02T21:04:08.997Z,1.60
2023-03-02T21:06:36.513Z,1.35
2023-03-02T21:09:07.625Z,1.40
2023-03-02T21:11:35.241Z,1.30
2023-03-02T21:14:02.573Z,1.40
2023-03-02T21:16:35.924Z,1.60
2023-03-02T21:19:06.042Z,1.50
2023-03-02T21:21:41.333Z,1.55
2023-03-02T21:24:11.298Z,1.40
2023-03-02T21:26:38.956Z,1.50
2023-03-02T21:29:06.405Z,1.50
2023-03-02T21:31:33.659Z,1.40
2023-03-02T21:34:01.980Z,1.30
2023-03-02T21:36:29.200Z,1.40
2023-03-02T21:38:56.675Z,1.70
2023-03-02T21:41:24.404Z,1.30
2023-03-02T21:43:51.514Z,1.20
2023-03-02T21:46:22.226Z,1.30
2023-03-02T21:48:50.885Z,1.05
2023-03-02T21:51:18.088Z,1.30
2023-03-02T21:53:45.324Z,1.30
2023-03-02T21:56:21.692Z,1.25
2023-03-02T21:58:50.379Z,1.20
2023-03-02T22:01:17.535Z,1.50
2023-03-02T22:03:44.960Z,1.30
2023-03-02T22:06:29.054Z,1.30
2023-03-02T22:08:57.255Z,1.30
2023-03-02T22:11:28.448Z,1.30
2023-03-02T22:14:02.234Z,1.30
2023-03-02T22:16:36.801Z,1.10
2023-03-02T22:19:20.125Z,1.38
2023-03-02T22:21:49.349Z,1.13
2023-03-02T22:24:27.785Z,1.10
2023-03-02T22:27:01.821Z,1.70
2023-03-02T22:29:39.821Z,1.30
2023-03-02T22:32:18.159Z,1.40
2023-03-02T22:34:48.021Z,1.60
2023-03-02T22:37:23.866Z,1.85
2023-03-02T22:39:54.642Z,3.85
2023-03-02T22:42:26.856Z,2.13
2023-03-02T22:45:14.497Z,1.67
2023-03-02T22:47:43.768Z,1.45
2023-03-02T22:50:28.828Z,1.60
2023-03-02T22:52:57.727Z,1.50
2023-03-02T22:55:30.312Z,1.73
2023-03-02T22:57:57.435Z,1.50
2023-03-02T23:00:39.068Z,1.40
2023-03-02T23:03:17.680Z,1.48
2023-03-02T23:05:48.933Z,2.03
2023-03-02T23:08:25.658Z,2.00
2023-03-02T23:10:57.678Z,1.98
2023-03-02T23:13:33.793Z,1.95
2023-03-02T23:16:01.557Z,2.00
2023-03-02T23:18:29.880Z,1.77
2023-03-02T23:20:56.930Z,1.75
2023-03-02T23:23:27.318Z,1.80
2023-03-02T23:25:54.400Z,1.60
2023-03-02T23:28:21.444Z,1.70
2023-03-02T23:30:48.489Z,1.30
2023-03-02T23:33:15.581Z,1.50
2023-03-02T23:35:42.669Z,1.50
2023-03-02T23:38:10.236Z,1.20
2023-03-02T23:40:37.318Z,1.20
2023-03-02T23:43:04.410Z,1.00
2023-03-02T23:45:31.544Z,1.08
2023-03-02T23:47:58.991Z,1.17
2023-03-02T23:50:26.063Z,1.60
2023-03-02T23:52:53.155Z,1.10
2023-03-02T23:55:20.199Z,1.35
2023-03-02T23:57:47.243Z,1.30
